createdAt,value
2018-06-20T00:02:25.378Z,20.20
2018-06-20T00:04:53.679Z,20.30
2018-06-20T00:07:22.006Z,20.30
2018-06-20T00:09:50.269Z,20.30
2018-06-20T00:12:18.648Z,20.30
2018-06-20T00:14:46.929Z,20.20
2018-06-20T00:17:15.249Z,20.30
2018-06-20T00:19:43.526Z,20.30
2018-06-20T00:22:11.864Z,20.30
2018-06-20T00:24:40.122Z,20.30
2018-06-20T00:27:08.377Z,20.30
2018-06-20T00:29:36.608Z,20.30
2018-06-20T00:32:04.838Z,20.30
2018-06-20T00:34:33.088Z,20.30
2018-06-20T00:37:01.283Z,20.30
2018-06-20T00:39:29.541Z,20.30
2018-06-20T00:41:57.784Z,20.20
2018-06-20T00:44:26.031Z,20.30
2018-06-20T00:46:54.304Z,20.30
2018-06-20T00:49:22.578Z,20.30
2018-06-20T00:51:50.817Z,20.20
2018-06-20T00:54:19.123Z,20.20
2018-06-20T00:56:47.392Z,20.10
2018-06-20T00:59:15.648Z,20.10
2018-06-20T01:01:43.932Z,20.10
2018-06-20T01:04:12.216Z,20.10
2018-06-20T01:06:40.458Z,20.10
2018-06-20T01:09:10.145Z,20.10
2018-06-20T01:11:38.508Z,20.10
2018-06-20T01:14:06.702Z,20.10
2018-06-20T01:16:35.081Z,20.10
2018-06-20T01:19:03.329Z,20.10
2018-06-20T01:21:31.586Z,20.10
2018-06-20T01:23:59.844Z,20.10
2018-06-20T01:26:28.062Z,20.10
2018-06-20T01:28:56.305Z,20.10
2018-06-20T01:31:24.556Z,20.10
2018-06-20T01:33:52.771Z,20.10
2018-06-20T01:36:21.011Z,20.10
2018-06-20T01:38:49.446Z,20.10
2018-06-20T01:41:17.700Z,20.00
2018-06-20T01:43:45.964Z,20.00
2018-06-20T01:46:14.227Z,19.90
2018-06-20T01:48:42.460Z,20.00
2018-06-20T01:51:10.687Z,19.90
2018-06-20T01:53:38.924Z,19.90
2018-06-20T01:56:07.276Z,19.90
2018-06-20T01:58:35.545Z,19.90
2018-06-20T02:01:03.822Z,19.90
2018-06-20T02:03:32.070Z,19.90
2018-06-20T02:06:00.288Z,19.90
2018-06-20T02:08:28.507Z,19.90
2018-06-20T02:10:56.783Z,19.90
2018-06-20T02:13:25.032Z,19.90
2018-06-20T02:15:53.331Z,20.00
2018-06-20T02:18:21.586Z,19.90
2018-06-20T02:20:49.824Z,19.90
2018-06-20T02:23:18.106Z,19.90
2018-06-20T02:25:46.353Z,19.90
2018-06-20T02:28:14.616Z,19.90
2018-06-20T02:30:42.891Z,19.90
2018-06-20T02:33:11.167Z,19.90
2018-06-20T02:35:39.414Z,19.90
2018-06-20T02:38:07.664Z,19.90
2018-06-20T02:40:35.923Z,19.90
2018-06-20T02:43:04.198Z,19.90
2018-06-20T02:45:32.470Z,19.90
2018-06-20T02:48:00.721Z,19.90
2018-06-20T02:50:29.011Z,19.90
2018-06-20T02:52:57.315Z,19.90
2018-06-20T02:55:25.575Z,19.90
2018-06-20T02:57:53.948Z,19.90
2018-06-20T03:00:22.231Z,19.90
2018-06-20T03:02:50.526Z,19.80
2018-06-20T03:05:18.905Z,19.90
2018-06-20T03:07:47.202Z,19.80
2018-06-20T03:10:15.456Z,19.80
2018-06-20T03:12:43.735Z,19.80
2018-06-20T03:15:11.990Z,19.80
2018-06-20T03:17:40.238Z,19.80
2018-06-20T03:20:08.476Z,19.80
2018-06-20T03:22:36.735Z,19.80
2018-06-20T03:25:05.002Z,19.80
2018-06-20T03:27:33.250Z,19.80
2018-06-20T03:30:01.512Z,19.80
2018-06-20T03:32:29.833Z,19.80
2018-06-20T03:34:58.630Z,19.80
2018-06-20T03:37:26.926Z,19.80
2018-06-20T03:39:55.174Z,19.80
2018-06-20T03:42:23.392Z,19.80
2018-06-20T03:44:51.695Z,19.80
2018-06-20T03:47:19.946Z,19.80
2018-06-20T03:49:48.208Z,19.70
2018-06-20T03:52:16.505Z,19.80
2018-06-20T03:54:44.759Z,19.70
2018-06-20T03:57:13.028Z,19.70
2018-06-20T03:59:41.295Z,19.80
2018-06-20T04:02:09.484Z,19.80
2018-06-20T04:04:37.660Z,19.80
2018-06-20T04:07:05.907Z,19.80
2018-06-20T04:09:34.111Z,19.80
2018-06-20T04:12:02.297Z,19.90
2018-06-20T04:14:30.486Z,19.90
2018-06-20T04:16:58.687Z,19.80
2018-06-20T04:19:26.853Z,19.80
2018-06-20T04:21:55.061Z,19.80
2018-06-20T04:24:23.236Z,19.90
2018-06-20T04:26:51.421Z,19.90
2018-06-20T04:29:19.617Z,19.90
2018-06-20T04:31:47.790Z,19.90
2018-06-20T04:34:15.980Z,19.90
2018-06-20T04:36:44.193Z,20.00
2018-06-20T04:39:12.432Z,20.00
2018-06-20T04:41:40.620Z,20.00
2018-06-20T04:44:08.936Z,20.00
2018-06-20T04:46:37.127Z,20.10
2018-06-20T04:49:05.339Z,20.10
2018-06-20T04:51:33.541Z,20.10
2018-06-20T04:54:01.725Z,20.20
2018-06-20T04:56:29.895Z,20.20
2018-06-20T04:58:58.105Z,20.20
2018-06-20T05:01:26.305Z,20.30
2018-06-20T05:03:54.512Z,20.30
2018-06-20T05:06:22.690Z,20.30
2018-06-20T05:08:50.878Z,20.30
2018-06-20T05:11:19.062Z,20.40
2018-06-20T05:13:47.253Z,20.40
2018-06-20T05:16:15.466Z,20.50
2018-06-20T05:18:43.636Z,20.50
2018-06-20T05:21:11.850Z,20.50
2018-06-20T05:23:40.026Z,20.60
2018-06-20T05:26:08.193Z,20.60
2018-06-20T05:28:36.385Z,20.80
2018-06-20T05:31:04.557Z,20.80
2018-06-20T05:33:32.729Z,20.90
2018-06-20T05:36:00.884Z,20.80
2018-06-20T05:38:29.061Z,20.90
2018-06-20T05:40:57.292Z,21.00
2018-06-20T05:43:25.472Z,21.00
2018-06-20T05:45:53.629Z,21.10
2018-06-20T05:48:21.837Z,21.10
2018-06-20T05:50:49.993Z,21.20
2018-06-20T05:53:18.200Z,21.30
2018-06-20T05:55:46.376Z,21.40
2018-06-20T05:58:14.593Z,21.30
2018-06-20T06:00:42.828Z,21.30
2018-06-20T06:03:10.998Z,21.40
2018-06-20T06:05:39.178Z,21.40
2018-06-20T06:08:09.030Z,21.40
2018-06-20T06:10:37.248Z,21.50
2018-06-20T06:13:05.418Z,21.60
2018-06-20T06:15:33.591Z,21.60
2018-06-20T06:18:01.792Z,21.60
2018-06-20T06:20:29.992Z,21.70
2018-06-20T06:22:58.179Z,21.70
2018-06-20T06:25:26.369Z,21.70
2018-06-20T06:27:54.590Z,21.80
2018-06-20T06:30:22.781Z,21.80
2018-06-20T06:32:50.955Z,21.90
2018-06-20T06:35:19.118Z,21.90
2018-06-20T06:37:47.392Z,22.00
2018-06-20T06:40:15.512Z,22.10
2018-06-20T06:42:43.735Z,22.10
2018-06-20T06:45:11.929Z,22.10
2018-06-20T06:47:40.158Z,22.20
2018-06-20T06:50:08.409Z,22.30
2018-06-20T06:52:36.534Z,22.40
2018-06-20T06:55:04.766Z,22.40
2018-06-20T06:57:32.952Z,22.50
2018-06-20T07:00:01.363Z,22.50
2018-06-20T07:02:29.541Z,22.50
2018-06-20T07:04:57.718Z,22.50
2018-06-20T07:07:25.898Z,22.60
2018-06-20T07:09:54.084Z,22.70
2018-06-20T07:12:22.265Z,22.80
2018-06-20T07:14:50.473Z,22.90
2018-06-20T07:17:18.679Z,22.90
2018-06-20T07:19:46.882Z,23.00
2018-06-20T07:22:15.105Z,23.10
2018-06-20T07:24:43.335Z,23.20
2018-06-20T07:27:11.589Z,23.20
2018-06-20T07:29:39.804Z,23.30
2018-06-20T07:32:08.245Z,23.40
2018-06-20T07:34:36.493Z,23.50
2018-06-20T07:37:04.690Z,23.60
2018-06-20T07:39:32.870Z,23.70
2018-06-20T07:42:01.071Z,23.80
2018-06-20T07:44:29.253Z,23.80
2018-06-20T07:46:58.331Z,23.80
2018-06-20T07:49:26.513Z,23.90
2018-06-20T07:51:54.751Z,24.00
2018-06-20T07:54:22.962Z,24.00
2018-06-20T07:56:51.151Z,24.00
2018-06-20T07:59:19.389Z,24.10
2018-06-20T08:02:04.338Z,24.10
2018-06-20T08:04:37.900Z,24.20
2018-06-20T08:07:11.610Z,24.50
2018-06-20T08:09:45.309Z,24.60
2018-06-20T08:12:18.974Z,24.60
2018-06-20T08:14:52.558Z,24.60
2018-06-20T08:17:25.866Z,24.60
2018-06-20T08:19:57.049Z,24.50
2018-06-20T08:22:25.221Z,24.60
2018-06-20T08:25:02.570Z,25.60
2018-06-20T08:27:32.146Z,25.20
2018-06-20T08:30:01.868Z,25.00
2018-06-20T08:32:30.454Z,24.90
2018-06-20T08:34:58.676Z,24.80
2018-06-20T08:37:26.896Z,25.00
2018-06-20T08:39:55.140Z,25.60
2018-06-20T08:42:24.081Z,27.50
2018-06-20T08:44:52.426Z,29.40
2018-06-20T08:47:20.601Z,31.30
2018-06-20T08:49:48.796Z,33.00
2018-06-20T08:52:16.973Z,33.70
2018-06-20T08:54:45.149Z,34.50
2018-06-20T08:57:14.053Z,33.90
2018-06-20T08:59:42.238Z,33.20
2018-06-20T09:02:10.417Z,32.00
2018-06-20T09:04:44.092Z,30.90
2018-06-20T09:07:17.710Z,30.00
2018-06-20T09:09:51.373Z,29.00
2018-06-20T09:12:24.983Z,28.20
2018-06-20T09:14:58.558Z,27.80
2018-06-20T09:17:32.165Z,27.60
2018-06-20T09:20:00.748Z,28.20
2018-06-20T09:22:28.936Z,28.50
2018-06-20T09:24:57.155Z,28.30
2018-06-20T09:27:25.316Z,28.10
2018-06-20T09:29:53.550Z,27.80
2018-06-20T09:32:21.700Z,28.00
2018-06-20T09:34:49.938Z,28.70
2018-06-20T09:39:46.053Z,31.00
2018-06-20T09:42:14.462Z,32.10
2018-06-20T09:44:42.755Z,32.70
2018-06-20T09:47:10.896Z,32.70
2018-06-20T09:49:39.146Z,33.30
2018-06-20T09:52:07.388Z,33.60
2018-06-20T09:54:35.578Z,33.90
2018-06-20T09:57:03.792Z,34.60
2018-06-20T09:59:37.467Z,35.20
2018-06-20T10:02:11.146Z,35.30
2018-06-20T10:04:44.790Z,35.40
2018-06-20T10:07:14.510Z,35.00
2018-06-20T10:09:48.146Z,34.90
2018-06-20T10:12:21.772Z,35.10
2018-06-20T10:14:49.983Z,34.90
2018-06-20T10:17:18.207Z,35.20
2018-06-20T10:19:46.544Z,35.30
2018-06-20T10:22:14.786Z,34.80
2018-06-20T10:24:42.981Z,34.10
2018-06-20T10:27:11.280Z,33.40
2018-06-20T10:29:39.471Z,32.60
2018-06-20T10:32:07.750Z,31.70
2018-06-20T10:34:35.958Z,31.10
2018-06-20T10:37:04.215Z,31.00
2018-06-20T10:39:32.419Z,31.00
2018-06-20T10:42:00.720Z,31.60
2018-06-20T10:44:29.041Z,32.10
2018-06-20T10:47:02.636Z,32.00
2018-06-20T10:49:30.839Z,32.10
2018-06-20T10:51:59.051Z,32.60
2018-06-20T10:54:27.433Z,33.20
2018-06-20T10:58:01.407Z,33.50
2018-06-20T11:00:35.180Z,33.90
2018-06-20T11:03:08.880Z,34.10
2018-06-20T11:05:42.533Z,34.20
2018-06-20T11:08:16.028Z,34.00
2018-06-20T11:10:49.674Z,33.50
2018-06-20T11:13:17.886Z,33.00
2018-06-20T11:15:46.428Z,32.60
2018-06-20T11:18:14.669Z,32.70
2018-06-20T11:20:48.352Z,32.50
2018-06-20T11:23:16.631Z,32.00
2018-06-20T11:25:44.793Z,31.80
2018-06-20T11:28:14.005Z,31.90
2018-06-20T11:30:44.140Z,32.30
2018-06-20T11:33:12.809Z,32.60
2018-06-20T11:35:41.792Z,33.10
2018-06-20T11:38:10.021Z,33.50
2018-06-20T11:40:38.261Z,33.40
2018-06-20T11:43:06.713Z,33.10
2018-06-20T11:45:40.270Z,32.70
2018-06-20T11:48:08.552Z,32.50
2018-06-20T11:50:36.762Z,32.20
2018-06-20T11:53:08.253Z,31.80
2018-06-20T11:55:44.171Z,31.40
2018-06-20T11:58:17.781Z,31.10
2018-06-20T12:00:51.436Z,31.10
2018-06-20T12:03:25.146Z,30.90
2018-06-20T12:05:58.688Z,31.00
2018-06-20T12:08:32.611Z,31.00
2018-06-20T12:11:06.218Z,30.90
2018-06-20T12:13:39.943Z,31.00
2018-06-20T12:16:24.834Z,31.10
2018-06-20T12:18:59.292Z,31.30
2018-06-20T12:21:32.865Z,31.50
2018-06-20T12:24:06.528Z,31.70
2018-06-20T12:26:40.573Z,31.50
2018-06-20T12:29:16.054Z,31.20
2018-06-20T12:31:50.573Z,30.90
2018-06-20T12:34:24.343Z,30.90
2018-06-20T12:36:58.006Z,31.00
2018-06-20T12:39:25.553Z,31.00
2018-06-20T12:41:59.068Z,31.00
2018-06-20T12:44:32.583Z,31.10
2018-06-20T12:49:35.584Z,31.30
2018-06-20T12:52:03.865Z,31.50
2018-06-20T12:54:32.340Z,31.60
2018-06-20T12:57:01.288Z,31.50
2018-06-20T12:59:30.264Z,31.40
2018-06-20T13:01:58.525Z,31.10
2018-06-20T13:04:26.783Z,31.00
2018-06-20T13:06:56.089Z,31.20
2018-06-20T13:09:26.005Z,31.30
2018-06-20T13:11:54.306Z,31.30
2018-06-20T13:14:22.889Z,31.40
2018-06-20T13:16:51.232Z,31.60
2018-06-20T13:19:19.477Z,31.70
2018-06-20T13:21:47.686Z,31.80
2018-06-20T13:24:15.976Z,31.90
2018-06-20T13:26:44.260Z,31.90
2018-06-20T13:29:12.454Z,31.80
2018-06-20T13:31:46.031Z,31.80
2018-06-20T13:34:19.736Z,31.60
2018-06-20T13:36:53.440Z,31.80
2018-06-20T13:39:27.067Z,31.80
2018-06-20T13:42:07.551Z,31.80
2018-06-20T13:44:35.696Z,31.80
2018-06-20T13:47:09.427Z,31.80
2018-06-20T13:49:37.788Z,31.70
2018-06-20T13:52:06.043Z,31.60
2018-06-20T13:54:34.169Z,31.60
2018-06-20T13:57:02.347Z,31.60
2018-06-20T13:59:30.512Z,31.50
2018-06-20T14:01:58.940Z,31.40
2018-06-20T14:04:27.345Z,31.40
2018-06-20T14:06:56.021Z,31.40
2018-06-20T14:09:24.569Z,31.50
2018-06-20T14:11:52.752Z,31.60
2018-06-20T14:14:20.918Z,31.60
2018-06-20T14:16:49.204Z,31.30
2018-06-20T14:19:17.363Z,31.30
2018-06-20T14:21:45.844Z,31.30
2018-06-20T14:24:14.120Z,31.20
2018-06-20T14:26:42.314Z,31.20
2018-06-20T14:29:11.129Z,31.40
2018-06-20T14:31:44.779Z,31.50
2018-06-20T14:34:18.465Z,31.40
2018-06-20T14:36:52.109Z,31.20
2018-06-20T14:39:25.760Z,30.90
2018-06-20T14:41:59.400Z,30.80
2018-06-20T14:44:27.572Z,31.00
2018-06-20T14:46:55.787Z,31.00
2018-06-20T14:49:23.964Z,31.10
2018-06-20T14:51:52.149Z,31.20
2018-06-20T14:54:20.314Z,31.30
2018-06-20T14:56:48.486Z,31.20
2018-06-20T14:59:17.025Z,31.20
2018-06-20T15:01:45.211Z,31.30
2018-06-20T15:04:13.468Z,31.30
2018-06-20T15:06:41.646Z,31.20
2018-06-20T15:09:09.832Z,30.90
2018-06-20T15:11:38.549Z,30.60
2018-06-20T15:14:06.811Z,30.40
2018-06-20T15:16:40.302Z,30.40
2018-06-20T15:19:08.456Z,30.50
2018-06-20T15:21:36.656Z,30.50
2018-06-20T15:24:04.969Z,30.60
2018-06-20T15:26:38.379Z,30.70
2018-06-20T15:29:11.959Z,30.50
2018-06-20T15:31:45.582Z,30.40
2018-06-20T15:34:19.059Z,30.30
2018-06-20T15:36:52.678Z,30.20
2018-06-20T15:39:20.939Z,30.10
2018-06-20T15:41:49.116Z,30.10
2018-06-20T15:44:17.285Z,30.10
2018-06-20T15:46:45.475Z,30.20
2018-06-20T15:49:13.687Z,30.20
2018-06-20T15:51:41.862Z,30.20
2018-06-20T15:54:10.092Z,30.20
2018-06-20T15:56:38.285Z,30.20
2018-06-20T15:59:06.474Z,30.10
2018-06-20T16:01:35.433Z,30.10
2018-06-20T16:04:03.603Z,30.10
2018-06-20T16:06:31.756Z,30.10
2018-06-20T16:09:05.305Z,30.00
2018-06-20T16:11:33.496Z,29.90
2018-06-20T16:14:01.716Z,29.80
2018-06-20T16:16:29.897Z,29.80
2018-06-20T16:20:03.239Z,29.70
2018-06-20T16:22:36.871Z,29.70
2018-06-20T16:25:10.396Z,29.60
2018-06-20T16:27:43.984Z,29.60
2018-06-20T16:30:17.554Z,29.50
2018-06-20T16:32:45.774Z,29.50
2018-06-20T16:35:13.953Z,29.50
2018-06-20T16:37:42.222Z,29.50
2018-06-20T16:40:11.342Z,29.40
2018-06-20T16:42:39.530Z,29.40
2018-06-20T16:45:07.711Z,29.40
2018-06-20T16:47:35.830Z,29.30
2018-06-20T16:50:04.029Z,29.20
2018-06-20T16:52:32.176Z,29.20
2018-06-20T16:55:00.382Z,29.10
2018-06-20T16:57:28.545Z,29.00
2018-06-20T16:59:56.719Z,28.90
2018-06-20T17:02:30.435Z,28.80
2018-06-20T17:04:58.593Z,28.80
2018-06-20T17:07:26.767Z,28.70
2018-06-20T17:09:54.922Z,28.70
2018-06-20T17:12:28.472Z,28.70
2018-06-20T17:15:02.061Z,28.60
2018-06-20T17:20:08.751Z,28.50
2018-06-20T17:25:15.134Z,28.40
2018-06-20T17:27:43.501Z,28.30
2018-06-20T17:30:11.647Z,28.30
2018-06-20T17:32:39.811Z,28.20
2018-06-20T17:35:07.977Z,28.20
2018-06-20T17:37:36.161Z,28.20
2018-06-20T17:40:04.359Z,28.10
2018-06-20T17:42:32.554Z,28.10
2018-06-20T17:45:00.708Z,28.00
2018-06-20T17:47:28.893Z,27.90
2018-06-20T17:49:57.161Z,27.90
2018-06-20T17:52:25.335Z,27.80
2018-06-20T17:54:53.507Z,27.80
2018-06-20T17:57:22.300Z,27.70
2018-06-20T17:59:50.515Z,27.70
2018-06-20T18:02:18.669Z,27.60
2018-06-20T18:04:54.074Z,27.60
2018-06-20T18:07:28.448Z,27.40
2018-06-20T18:10:02.039Z,27.20
2018-06-20T18:13:04.973Z,27.10
2018-06-20T18:15:38.636Z,27.10
2018-06-20T18:18:07.245Z,27.00
2018-06-20T18:20:35.396Z,27.00
2018-06-20T18:23:03.890Z,27.00
2018-06-20T18:25:32.057Z,26.90
2018-06-20T18:28:00.215Z,26.80
2018-06-20T18:30:28.369Z,26.70
2018-06-20T18:32:56.579Z,26.70
2018-06-20T18:35:25.158Z,26.60
2018-06-20T18:37:53.336Z,26.50
2018-06-20T18:40:21.544Z,26.50
2018-06-20T18:42:49.732Z,26.40
2018-06-20T18:45:17.945Z,26.40
2018-06-20T18:47:51.637Z,26.40
2018-06-20T18:50:19.819Z,26.30
2018-06-20T18:52:47.983Z,26.30
2018-06-20T18:55:16.175Z,26.20
2018-06-20T18:57:49.876Z,26.20
2018-06-20T19:00:23.561Z,26.10
2018-06-20T19:02:57.102Z,26.10
2018-06-20T19:05:30.591Z,25.90
2018-06-20T19:08:04.239Z,25.80
2018-06-20T19:10:32.592Z,25.80
2018-06-20T19:15:29.272Z,25.70
2018-06-20T19:17:57.488Z,25.60
2018-06-20T19:20:25.702Z,25.60
2018-06-20T19:22:53.874Z,25.50
2018-06-20T19:25:22.092Z,25.50
2018-06-20T19:27:50.287Z,25.40
2018-06-20T19:30:18.498Z,25.40
2018-06-20T19:32:46.749Z,25.30
2018-06-20T19:35:14.977Z,25.30
2018-06-20T19:37:43.120Z,25.20
2018-06-20T19:40:11.327Z,25.20
2018-06-20T19:42:39.497Z,25.10
2018-06-20T19:45:07.764Z,25.00
2018-06-20T19:47:35.885Z,24.90
2018-06-20T19:50:04.090Z,24.90
2018-06-20T19:52:32.246Z,24.90
2018-06-20T19:55:00.473Z,24.80
2018-06-20T19:57:28.680Z,24.80
2018-06-20T19:59:56.863Z,24.70
2018-06-20T20:02:25.029Z,24.70
2018-06-20T20:04:53.227Z,24.60
2018-06-20T20:07:21.407Z,24.50
2018-06-20T20:09:49.620Z,24.50
2018-06-20T20:12:17.801Z,24.30
2018-06-20T20:14:46.040Z,24.20
2018-06-20T20:17:14.256Z,24.20
2018-06-20T20:19:42.441Z,24.00
2018-06-20T20:22:10.634Z,23.90
2018-06-20T20:24:38.821Z,23.90
2018-06-20T20:27:07.041Z,23.90
2018-06-20T20:29:35.460Z,23.90
2018-06-20T20:32:03.726Z,23.80
2018-06-20T20:34:31.920Z,23.80
2018-06-20T20:37:00.130Z,23.70
2018-06-20T20:39:28.311Z,23.60
2018-06-20T20:41:56.564Z,23.50
2018-06-20T20:44:25.209Z,23.50
2018-06-20T20:46:53.723Z,23.40
2018-06-20T20:49:21.994Z,23.30
2018-06-20T20:51:50.176Z,23.20
2018-06-20T20:54:22.768Z,23.20
2018-06-20T20:56:50.952Z,23.10
2018-06-20T20:59:19.748Z,23.20
2018-06-20T21:01:48.677Z,23.10
2018-06-20T21:04:16.945Z,23.00
2018-06-20T21:06:45.267Z,22.90
2018-06-20T21:09:13.482Z,22.80
2018-06-20T21:11:41.710Z,22.80
2018-06-20T21:14:09.946Z,22.70
2018-06-20T21:16:38.211Z,22.60
2018-06-20T21:19:06.506Z,22.60
2018-06-20T21:21:34.685Z,22.50
2018-06-20T21:24:03.052Z,22.50
2018-06-20T21:26:31.241Z,22.40
2018-06-20T21:28:59.484Z,22.40
2018-06-20T21:31:27.859Z,22.40
2018-06-20T21:33:56.119Z,22.40
2018-06-20T21:36:24.317Z,22.30
2018-06-20T21:38:52.547Z,22.30
2018-06-20T21:41:20.766Z,22.20
2018-06-20T21:43:49.030Z,22.30
2018-06-20T21:46:17.267Z,22.30
2018-06-20T21:51:13.473Z,22.40
2018-06-20T21:53:41.761Z,22.40
2018-06-20T21:56:09.945Z,22.50
2018-06-20T21:58:39.641Z,22.50
2018-06-20T22:01:07.905Z,22.50
2018-06-20T22:03:36.148Z,22.50
2018-06-20T22:06:04.423Z,22.40
2018-06-20T22:08:32.958Z,22.40
2018-06-20T22:11:01.143Z,22.40
2018-06-20T22:13:29.419Z,22.40
2018-06-20T22:15:57.869Z,22.40
2018-06-20T22:20:55.013Z,22.40
2018-06-20T22:23:23.225Z,22.40
2018-06-20T22:25:51.424Z,22.40
2018-06-20T22:28:19.615Z,22.30
2018-06-20T22:30:47.851Z,22.30
2018-06-20T22:33:16.034Z,22.30
2018-06-20T22:35:44.257Z,22.30
2018-06-20T22:38:12.498Z,22.30
2018-06-20T22:40:40.708Z,22.30
2018-06-20T22:43:08.933Z,22.30
2018-06-20T22:45:37.160Z,22.30
2018-06-20T22:48:05.397Z,22.30
2018-06-20T22:50:33.602Z,22.20
2018-06-20T22:53:01.821Z,22.20
2018-06-20T22:55:30.027Z,22.10
2018-06-20T22:57:58.218Z,22.10
2018-06-20T23:00:26.449Z,22.10
2018-06-20T23:02:54.654Z,22.10
2018-06-20T23:05:22.864Z,22.00
2018-06-20T23:07:51.062Z,22.00
2018-06-20T23:10:19.254Z,22.00
2018-06-20T23:12:47.469Z,22.00
2018-06-20T23:15:15.656Z,22.00
2018-06-20T23:17:43.852Z,22.00
2018-06-20T23:20:12.060Z,21.90
2018-06-20T23:22:40.264Z,21.90
2018-06-20T23:25:08.465Z,22.00
2018-06-20T23:27:36.688Z,22.00
2018-06-20T23:30:05.260Z,22.00
2018-06-20T23:32:33.445Z,22.00
2018-06-20T23:35:01.656Z,22.00
2018-06-20T23:37:29.952Z,21.90
2018-06-20T23:39:58.189Z,22.00
2018-06-20T23:42:26.378Z,21.90
2018-06-20T23:44:54.594Z,21.80
2018-06-20T23:47:22.870Z,21.70
2018-06-20T23:49:51.062Z,21.60
2018-06-20T23:52:19.269Z,21.50
2018-06-20T23:54:47.467Z,21.40
2018-06-20T23:57:15.682Z,21.40
2018-06-20T23:59:44.148Z,21.40
